createdAt,value
2023-06-10T00:01:07.603Z,3.42
2023-06-10T00:06:09.910Z,3.45
2023-06-10T00:11:12.245Z,3.25
2023-06-10T00:16:14.681Z,3.05
2023-06-10T00:21:17.041Z,3.88
2023-06-10T00:26:19.458Z,3.63
2023-06-10T00:31:22.001Z,3.40
2023-06-10T00:36:24.220Z,3.80
2023-06-10T00:41:29.769Z,2.90
2023-06-10T00:46:34.221Z,3.20
2023-06-10T00:51:37.763Z,3.55
2023-06-10T00:56:40.118Z,3.83
2023-06-10T01:01:44.983Z,4.28
2023-06-10T01:06:54.073Z,4.25
2023-06-10T01:12:04.606Z,4.43
2023-06-10T01:17:08.618Z,4.22
2023-06-10T01:22:12.231Z,4.13
2023-06-10T01:27:17.429Z,5.03
2023-06-10T01:32:29.177Z,4.85
2023-06-10T01:37:34.037Z,4.53
2023-06-10T01:42:37.030Z,5.25
2023-06-10T01:47:39.330Z,4.47
2023-06-10T01:52:41.648Z,4.35
2023-06-10T01:57:43.969Z,4.97
2023-06-10T02:02:46.462Z,4.25
2023-06-10T02:07:48.927Z,4.43
2023-06-10T02:12:51.402Z,4.40
2023-06-10T02:17:53.946Z,4.50
2023-06-10T02:22:56.432Z,4.90
2023-06-10T02:27:58.716Z,4.32
2023-06-10T02:33:01.077Z,4.55
2023-06-10T02:38:03.317Z,4.55
2023-06-10T02:43:05.615Z,4.10
2023-06-10T02:48:07.941Z,4.95
2023-06-10T02:53:10.309Z,4.70
2023-06-10T02:58:12.553Z,5.25
2023-06-10T03:03:15.016Z,5.05
2023-06-10T03:08:17.295Z,5.43
2023-06-10T03:13:19.492Z,5.10
2023-06-10T03:18:22.001Z,5.30
2023-06-10T03:23:24.981Z,4.97
2023-06-10T03:28:27.387Z,4.68
2023-06-10T03:33:29.660Z,4.65
2023-06-10T03:38:31.948Z,5.30
2023-06-10T03:43:34.342Z,5.20
2023-06-10T03:48:36.565Z,5.00
2023-06-10T03:53:38.868Z,4.47
2023-06-10T03:58:44.029Z,5.10
2023-06-10T04:03:52.915Z,5.30
2023-06-10T04:08:55.261Z,5.50
2023-06-10T04:13:57.470Z,4.65
2023-06-10T04:19:02.070Z,5.10
2023-06-10T04:24:04.604Z,6.25
2023-06-10T04:29:06.952Z,6.13
2023-06-10T04:34:09.296Z,4.82
2023-06-10T04:39:12.155Z,4.72
2023-06-10T04:44:15.157Z,4.60
2023-06-10T04:49:17.353Z,4.15
2023-06-10T04:54:19.710Z,4.78
2023-06-10T04:59:21.951Z,4.45
2023-06-10T05:04:24.304Z,3.95
2023-06-10T05:09:27.573Z,3.97
2023-06-10T05:14:29.830Z,4.20
2023-06-10T05:19:32.247Z,3.80
2023-06-10T05:24:34.486Z,3.85
2023-06-10T05:29:36.752Z,4.25
2023-06-10T05:34:39.127Z,4.47
2023-06-10T05:39:41.505Z,4.47
2023-06-10T05:44:43.974Z,4.82
2023-06-10T05:49:49.670Z,4.63
2023-06-10T05:54:52.389Z,4.72
2023-06-10T05:59:54.613Z,3.70
2023-06-10T06:04:56.859Z,4.20
2023-06-10T06:09:59.279Z,4.72
2023-06-10T06:15:01.585Z,4.07
2023-06-10T06:20:05.040Z,4.88
2023-06-10T06:25:07.854Z,4.47
2023-06-10T06:30:11.140Z,3.97
2023-06-10T06:35:13.340Z,4.45
2023-06-10T06:40:15.839Z,4.65
2023-06-10T06:45:18.200Z,3.83
2023-06-10T06:50:20.943Z,4.07
2023-06-10T06:55:23.230Z,4.50
2023-06-10T07:00:25.484Z,4.25
2023-06-10T07:05:28.785Z,3.60
2023-06-10T07:10:31.164Z,4.45
2023-06-10T07:15:34.290Z,4.40
2023-06-10T07:20:36.536Z,3.75
2023-06-10T07:25:38.881Z,3.65
2023-06-10T07:30:41.267Z,3.72
2023-06-10T07:35:44.600Z,3.38
2023-06-10T07:40:47.214Z,2.95
2023-06-10T07:45:49.504Z,3.78
2023-06-10T07:50:51.824Z,3.80
2023-06-10T07:55:54.110Z,3.67
2023-06-10T08:00:56.323Z,3.85
2023-06-10T08:05:59.584Z,3.13
2023-06-10T08:11:02.040Z,3.58
2023-06-10T08:16:04.692Z,3.58
2023-06-10T08:21:07.293Z,3.20
2023-06-10T08:26:09.628Z,3.25
2023-06-10T08:31:11.913Z,3.80
2023-06-10T08:36:14.344Z,3.90
2023-06-10T08:41:19.258Z,4.70
2023-06-10T08:46:22.200Z,4.18
2023-06-10T08:51:28.727Z,3.45
2023-06-10T08:56:32.718Z,3.95
2023-06-10T09:01:35.663Z,3.25
2023-06-10T09:06:39.487Z,3.45
2023-06-10T09:11:44.238Z,3.30
2023-06-10T09:16:48.192Z,3.60
2023-06-10T09:21:50.368Z,2.67
2023-06-10T09:27:06.725Z,2.92
2023-06-10T09:32:10.705Z,3.53
2023-06-10T09:37:15.177Z,3.47
2023-06-10T09:42:19.879Z,3.35
2023-06-10T09:47:24.174Z,3.55
2023-06-10T09:52:28.201Z,3.28
2023-06-10T09:57:45.693Z,3.22
2023-06-10T10:02:55.359Z,3.33
2023-06-10T10:07:58.097Z,3.20
2023-06-10T10:13:00.926Z,3.42
2023-06-10T10:18:12.355Z,6.80
2023-06-10T10:23:19.956Z,3.38
2023-06-10T10:28:25.857Z,3.75
2023-06-10T10:33:42.937Z,3.30
2023-06-10T10:38:52.449Z,3.67
2023-06-10T10:43:56.263Z,3.53
2023-06-10T10:49:00.331Z,3.40
2023-06-10T10:54:15.545Z,3.42
2023-06-10T10:59:21.393Z,4.50
2023-06-10T11:04:23.755Z,3.55
2023-06-10T11:09:30.439Z,3.08
2023-06-10T11:14:34.358Z,3.97
2023-06-10T11:19:40.430Z,3.15
2023-06-10T11:24:42.723Z,2.90
2023-06-10T11:30:20.646Z,2.92
2023-06-10T11:35:25.557Z,3.00
2023-06-10T11:40:28.144Z,2.92
2023-06-10T11:45:31.454Z,3.10
2023-06-10T11:50:35.241Z,3.47
2023-06-10T11:55:44.993Z,3.40
2023-06-10T12:00:50.734Z,6.03
2023-06-10T12:06:11.073Z,3.60
2023-06-10T12:11:13.419Z,3.47
2023-06-10T12:16:16.164Z,3.15
2023-06-10T12:21:19.303Z,2.80
2023-06-10T12:26:21.540Z,2.95
2023-06-10T12:31:23.882Z,2.80
2023-06-10T12:36:26.325Z,3.28
2023-06-10T12:41:30.617Z,2.55
2023-06-10T12:46:39.671Z,3.10
2023-06-10T12:51:41.928Z,3.30
2023-06-10T12:56:44.167Z,2.63
2023-06-10T13:01:52.214Z,2.80
2023-06-10T13:06:54.987Z,2.95
2023-06-10T13:11:57.233Z,2.75
2023-06-10T13:16:59.508Z,2.92
2023-06-10T13:22:01.910Z,3.20
2023-06-10T13:27:04.181Z,2.88
2023-06-10T13:32:06.992Z,2.97
2023-06-10T13:37:09.334Z,3.03
2023-06-10T13:42:11.577Z,3.08
2023-06-10T13:47:13.922Z,3.13
2023-06-10T13:52:16.287Z,2.92
2023-06-10T13:57:18.608Z,2.92
2023-06-10T14:02:20.995Z,2.65
2023-06-10T14:07:23.376Z,2.72
2023-06-10T14:12:26.317Z,2.60
2023-06-10T14:17:28.657Z,2.60
2023-06-10T14:22:31.038Z,2.60
2023-06-10T14:27:33.297Z,2.83
2023-06-10T14:32:35.657Z,2.97
2023-06-10T14:37:38.397Z,3.13
2023-06-10T14:42:41.127Z,3.25
2023-06-10T14:47:44.319Z,3.28
2023-06-10T14:52:46.620Z,3.45
2023-06-10T14:57:48.913Z,3.13
2023-06-10T15:02:52.228Z,2.90
2023-06-10T15:07:54.700Z,2.47
2023-06-10T15:12:57.500Z,3.28
2023-06-10T15:17:59.962Z,2.78
2023-06-10T15:23:03.184Z,2.05
2023-06-10T15:28:06.287Z,2.50
2023-06-10T15:33:08.626Z,3.38
2023-06-10T15:38:10.914Z,3.20
2023-06-10T15:43:14.725Z,2.72
2023-06-10T15:48:17.010Z,3.70
2023-06-10T15:53:19.253Z,3.78
2023-06-10T15:58:21.596Z,3.30
2023-06-10T16:03:23.990Z,3.50
2023-06-10T16:08:26.257Z,4.03
2023-06-10T16:13:30.077Z,3.33
2023-06-10T16:18:32.637Z,4.55
2023-06-10T16:23:35.025Z,3.92
2023-06-10T16:28:37.303Z,3.90
2023-06-10T16:33:39.607Z,2.70
2023-06-10T16:38:41.953Z,3.45
2023-06-10T16:43:44.246Z,4.00
2023-06-10T16:48:46.545Z,3.45
2023-06-10T16:53:48.828Z,3.95
2023-06-10T16:58:51.017Z,4.55
2023-06-10T17:03:53.235Z,4.68
2023-06-10T17:08:55.519Z,3.55
2023-06-10T17:13:57.769Z,3.70
2023-06-10T17:19:00.089Z,3.88
2023-06-10T17:24:02.639Z,3.65
2023-06-10T17:29:05.135Z,3.92
2023-06-10T17:34:07.350Z,2.95
2023-06-10T17:39:09.624Z,4.25
2023-06-10T17:44:11.934Z,4.57
2023-06-10T17:49:14.180Z,4.03
2023-06-10T17:54:16.535Z,4.25
2023-06-10T17:59:18.780Z,4.75
2023-06-10T18:04:21.158Z,4.03
2023-06-10T18:09:26.918Z,4.10
2023-06-10T18:14:29.194Z,4.50
2023-06-10T18:19:31.418Z,4.35
2023-06-10T18:24:33.718Z,5.35
2023-06-10T18:29:36.482Z,4.20
2023-06-10T18:34:38.821Z,4.40
2023-06-10T18:39:41.029Z,6.25
2023-06-10T18:44:43.308Z,5.68
2023-06-10T18:49:46.734Z,5.68
2023-06-10T18:54:49.137Z,5.15
2023-06-10T18:59:51.318Z,5.85
2023-06-10T19:04:53.803Z,5.15
2023-06-10T19:09:56.046Z,4.85
2023-06-10T19:14:58.282Z,6.68
2023-06-10T19:20:00.649Z,8.20
2023-06-10T19:25:08.094Z,6.80
2023-06-10T19:30:10.947Z,6.07
2023-06-10T19:35:13.336Z,6.88
2023-06-10T19:40:15.602Z,6.82
2023-06-10T19:45:18.224Z,6.35
2023-06-10T19:50:20.762Z,5.57
2023-06-10T19:55:23.678Z,6.18
2023-06-10T20:00:26.156Z,8.20
2023-06-10T20:05:28.515Z,7.20
2023-06-10T20:10:30.922Z,6.70
2023-06-10T20:15:33.411Z,6.50
2023-06-10T20:20:35.871Z,7.30
2023-06-10T20:25:38.162Z,5.10
2023-06-10T20:30:40.593Z,5.72
2023-06-10T20:35:44.695Z,6.18
2023-06-10T20:40:46.996Z,4.40
2023-06-10T20:45:50.173Z,4.05
2023-06-10T20:50:52.725Z,4.13
2023-06-10T20:55:55.296Z,4.07
2023-06-10T21:00:57.705Z,3.90
2023-06-10T21:05:59.973Z,4.10
2023-06-10T21:11:02.340Z,3.83
2023-06-10T21:16:04.769Z,3.53
2023-06-10T21:21:07.138Z,4.28
2023-06-10T21:26:09.423Z,4.68
2023-06-10T21:31:11.713Z,4.30
2023-06-10T21:36:19.041Z,6.13
2023-06-10T21:41:23.489Z,4.90
2023-06-10T21:46:27.498Z,4.80
2023-06-10T21:51:29.794Z,5.63
2023-06-10T21:56:35.162Z,5.18
2023-06-10T22:01:37.535Z,5.28
2023-06-10T22:06:40.046Z,5.68
2023-06-10T22:11:44.088Z,5.53
2023-06-10T22:16:46.532Z,5.43
2023-06-10T22:21:48.801Z,6.13
2023-06-10T22:26:54.128Z,5.68
2023-06-10T22:31:57.400Z,5.20
2023-06-10T22:36:59.683Z,6.20
2023-06-10T22:42:02.060Z,5.97
2023-06-10T22:47:04.607Z,5.53
2023-06-10T22:52:07.185Z,5.97
2023-06-10T22:57:09.491Z,6.07
2023-06-10T23:02:11.857Z,6.15
2023-06-10T23:07:15.586Z,7.38
2023-06-10T23:12:18.061Z,6.82
2023-06-10T23:17:20.486Z,7.25
2023-06-10T23:22:25.529Z,6.60
2023-06-10T23:27:29.454Z,6.63
2023-06-10T23:32:32.646Z,5.55
2023-06-10T23:37:35.035Z,6.60
2023-06-10T23:42:37.677Z,6.43
2023-06-10T23:47:40.061Z,6.70
2023-06-10T23:52:42.351Z,7.10
2023-06-10T23:57:44.635Z,7.20
